Yorkana, Pennsylvania
Current Conditions -  °F | °C
As of 9:56 AM on Friday 28 Nov 2014 (Local Time) from KMDT Reporting Station
Broken Clouds Broken Clouds  
Wind Chill: 23°   Ceiling: 5500
Heat Index: 33°   Visibility: 10mi
Dew Point: 17°   Wind: 16mph
Humidity: 52%   Direction: 300°WNW
Pressure: 30.27"   Gusts: NA
Location:  40.0152°N, 76.5974°W
Report Text: KMDT 281456Z 30014KT 10SM BKN055 01/M08 A3027 RMK AO2 SLP255 T00061083 51017
Loading
Personal Weather Stations






























Interactive Weather Map New forecast layout! Learn more

10-Day Weather Forecast

Advertisements
Track Severe Weather on mobile